Time;durP1;ratioP1;P1;durP2;ratioP2;P2;SDS_P1;SDS_P2;PMS_P1;PMS_P2;Temp;Humidity;BMP_temperature;BMP_pressure;BME280_temperature;BME280_humidity;BME280_pressure;Samples;Min_cycle;Max_cycle;Signal;HPM_P1;HPM_P2
2021/01/24 00:02:02;;;;;;;19.12;10.05;;;;;;;3.56;82.18;98332.61;1790770;79;22690;-66
2021/01/24 00:04:29;;;;;;;17.23;9.50;;;;;;;3.55;82.38;98334.88;1795211;79;25471;-69
2021/01/24 00:06:55;;;;;;;17.65;9.18;;;;;;;3.52;82.60;98339.10;1789500;79;28349;-67
2021/01/24 00:09:20;;;;;;;16.55;9.43;;;;;;;3.55;82.42;98327.05;1795671;77;28398;-67
2021/01/24 00:11:46;;;;;;;17.07;9.15;;;;;;;3.43;82.59;98329.59;1803146;77;26792;-69
2021/01/24 00:14:12;;;;;;;17.77;10.10;;;;;;;3.38;83.09;98314.91;1790846;77;22312;-66
2021/01/24 00:16:38;;;;;;;16.93;9.05;;;;;;;3.36;83.27;98311.64;1811086;77;27401;-67
2021/01/24 00:19:03;;;;;;;17.30;9.53;;;;;;;3.31;83.45;98317.33;1816377;77;22404;-67
2021/01/24 00:21:29;;;;;;;17.27;9.53;;;;;;;3.34;83.65;98320.09;1814628;77;28822;-67
2021/01/24 00:23:55;;;;;;;17.77;10.45;;;;;;;3.36;83.47;98320.77;1816222;77;26691;-69
2021/01/24 00:26:20;;;;;;;15.88;9.45;;;;;;;3.28;83.58;98323.31;1816748;77;22111;-68
2021/01/24 00:28:46;;;;;;;16.60;9.58;;;;;;;3.21;84.29;98321.32;1817201;77;26839;-67
2021/01/24 00:31:12;;;;;;;16.17;9.40;;;;;;;3.07;84.76;98320.59;1814750;76;23994;-66
2021/01/24 00:33:37;;;;;;;18.05;9.53;;;;;;;3.03;85.11;98325.30;1820593;77;28382;-68
2021/01/24 00:36:04;;;;;;;17.85;9.78;;;;;;;3.04;85.45;98302.65;1816910;77;26804;-67
2021/01/24 00:38:30;;;;;;;18.35;10.40;;;;;;;3.01;85.62;98304.26;1814715;77;21184;-68
2021/01/24 00:40:55;;;;;;;17.77;10.03;;;;;;;3.10;85.43;98302.53;1816002;77;26532;-67
2021/01/24 00:43:21;;;;;;;16.70;9.67;;;;;;;3.13;85.29;98308.24;1819327;77;21805;-67
2021/01/24 00:45:48;;;;;;;19.92;10.15;;;;;;;3.11;85.27;98311.97;1815667;77;28346;-66
2021/01/24 00:48:15;;;;;;;18.67;10.65;;;;;;;3.24;84.75;98309.28;1819606;77;21184;-67
2021/01/24 00:50:41;;;;;;;17.45;10.88;;;;;;;3.21;84.80;98306.17;1813690;77;22195;-68
2021/01/24 00:53:07;;;;;;;17.65;10.35;;;;;;;3.21;84.94;98318.72;1812635;77;21189;-68
2021/01/24 00:55:33;;;;;;;19.57;11.03;;;;;;;3.16;85.11;98313.16;1812073;77;22715;-68
2021/01/24 00:57:59;;;;;;;21.17;11.03;;;;;;;3.15;85.04;98308.09;1815878;77;28340;-68
2021/01/24 01:00:25;;;;;;;18.65;9.93;;;;;;;3.17;85.23;98303.53;1813363;77;21167;-68
2021/01/24 01:02:50;;;;;;;17.98;9.98;;;;;;;3.22;84.58;98299.50;1821490;77;21805;-67
2021/01/24 01:05:16;;;;;;;18.90;10.93;;;;;;;3.30;84.40;98300.52;1814963;77;26260;-68
2021/01/24 01:07:42;;;;;;;21.37;11.70;;;;;;;3.29;84.37;98306.70;1812698;77;21800;-68
2021/01/24 01:10:09;;;;;;;23.77;12.40;;;;;;;3.28;84.26;98297.23;1811880;77;28941;-68
2021/01/24 01:12:34;;;;;;;24.43;12.70;;;;;;;3.19;84.42;98302.41;1814159;77;21618;-69
2021/01/24 01:15:00;;;;;;;20.72;11.55;;;;;;;3.07;84.64;98304.95;1816026;77;22188;-68
2021/01/24 01:17:26;;;;;;;23.00;12.23;;;;;;;3.18;84.64;98290.33;1816619;76;26123;-67
2021/01/24 01:19:52;;;;;;;22.00;12.77;;;;;;;3.29;84.30;98281.92;1812513;76;21002;-67
2021/01/24 01:22:17;;;;;;;27.20;13.03;;;;;;;3.16;84.19;98288.88;1812609;77;28381;-68
2021/01/24 01:24:43;;;;;;;19.98;10.78;;;;;;;3.23;84.33;98275.05;1811745;76;26705;-67
2021/01/24 01:27:09;;;;;;;18.82;10.43;;;;;;;3.11;84.37;98275.45;1814606;77;21419;-68
2021/01/24 01:29:34;;;;;;;16.03;9.93;;;;;;;3.22;84.14;98273.41;1814973;77;26447;-68
2021/01/24 01:32:00;;;;;;;19.50;10.70;;;;;;;3.12;84.10;98270.09;1814372;77;22837;-69
2021/01/24 01:34:26;;;;;;;18.00;10.28;;;;;;;3.11;84.43;98271.08;1815110;77;28368;-68
2021/01/24 01:36:52;;;;;;;20.37;10.88;;;;;;;3.03;84.56;98261.42;1812255;77;26732;-67
2021/01/24 01:39:17;;;;;;;17.75;9.88;;;;;;;2.95;85.11;98257.94;1819460;76;21358;-68
2021/01/24 01:41:43;;;;;;;20.07;11.10;;;;;;;3.03;84.84;98258.81;1814707;76;25854;-69
2021/01/24 01:44:09;;;;;;;18.73;10.93;;;;;;;3.00;84.83;98255.21;1815068;76;24395;-69
2021/01/24 01:46:35;;;;;;;19.05;9.80;;;;;;;2.96;84.92;98258.28;1812879;77;27922;-69
2021/01/24 01:49:01;;;;;;;19.73;10.37;;;;;;;3.01;85.07;98258.63;1768829;77;21149;-70
2021/01/24 01:51:27;;;;;;;18.55;10.38;;;;;;;2.91;85.10;98264.45;1813984;77;21500;-69
2021/01/24 01:53:54;;;;;;;19.40;9.83;;;;;;;2.92;85.52;98253.03;1815612;77;26462;-69
2021/01/24 01:56:19;;;;;;;20.10;9.88;;;;;;;2.87;85.48;98253.49;1813994;77;21192;-68
2021/01/24 01:58:45;;;;;;;17.35;10.35;;;;;;;2.84;85.78;98243.38;1811296;77;27635;-68
2021/01/24 02:01:29;;;;;;;16.45;9.60;;;;;;;2.76;86.19;98245.94;1818885;77;25650;-70
2021/01/24 02:04:12;;;;;;;16.00;9.43;;;;;;;2.74;85.96;98244.79;1813688;77;21913;-72
2021/01/24 02:06:52;;;;;;;18.87;9.68;;;;;;;2.64;86.00;98235.77;1756669;77;21176;-69
2021/01/24 02:09:38;;;;;;;15.38;9.23;;;;;;;2.72;86.15;98237.62;1814271;76;21825;-69
2021/01/24 02:12:36;;;;;;;15.43;8.85;;;;;;;2.85;85.76;98237.20;1814461;76;21196;-70
2021/01/24 02:15:09;;;;;;;15.43;9.25;;;;;;;2.82;85.38;98240.92;1812324;76;21221;-69
2021/01/24 02:17:44;;;;;;;15.53;9.53;;;;;;;2.95;85.19;98240.99;1781216;78;21171;-69
2021/01/24 02:20:55;;;;;;;15.55;9.20;;;;;;;2.94;85.00;98248.01;1805309;77;21259;-70
2021/01/24 02:23:21;;;;;;;12.58;8.20;;;;;;;2.83;85.11;98252.99;1792475;77;21888;-70
2021/01/24 02:26:10;;;;;;;18.65;8.65;;;;;;;2.93;84.82;98254.68;1806583;77;21097;-70
2021/01/24 02:29:03;;;;;;;16.70;8.93;;;;;;;3.00;84.54;98258.31;1803190;77;21623;-70
2021/01/24 02:31:28;;;;;;;13.80;8.28;;;;;;;3.01;84.58;98257.32;1804255;77;21873;-68
2021/01/24 02:33:54;;;;;;;14.10;8.33;;;;;;;3.05;84.19;98252.95;1798379;77;23528;-67
2021/01/24 02:36:20;;;;;;;14.80;8.60;;;;;;;3.09;84.25;98252.14;1802281;77;20997;-69
2021/01/24 02:38:46;;;;;;;13.38;8.43;;;;;;;3.11;84.03;98254.13;1800957;78;21643;-70
2021/01/24 02:41:12;;;;;;;13.90;9.13;;;;;;;3.10;83.89;98251.67;1797786;77;26253;-70
2021/01/24 02:43:39;;;;;;;13.33;8.77;;;;;;;3.12;83.91;98250.53;1801823;77;22283;-69
2021/01/24 02:46:05;;;;;;;16.02;8.98;;;;;;;3.16;83.86;98250.56;1798768;78;21132;-69
2021/01/24 02:48:31;;;;;;;13.73;8.80;;;;;;;3.09;83.74;98245.63;1799247;78;21599;-68
2021/01/24 02:50:57;;;;;;;12.53;8.63;;;;;;;3.07;84.02;98243.66;1806966;78;28898;-69
2021/01/24 02:53:22;;;;;;;13.72;9.13;;;;;;;3.11;84.03;98258.05;1806639;78;25571;-69
2021/01/24 02:55:48;;;;;;;14.20;9.00;;;;;;;3.22;83.71;98265.59;1800288;78;22190;-68
2021/01/24 02:58:14;;;;;;;13.87;8.80;;;;;;;3.25;83.51;98269.69;1800932;78;25497;-68
2021/01/24 03:00:39;;;;;;;14.20;9.70;;;;;;;3.33;83.30;98281.45;1803429;78;25610;-69
2021/01/24 03:03:05;;;;;;;14.18;9.35;;;;;;;3.34;83.52;98270.52;1806055;78;28378;-69
2021/01/24 03:05:31;;;;;;;12.98;9.38;;;;;;;3.34;83.31;98263.53;1798544;78;26664;-69
2021/01/24 03:07:57;;;;;;;13.13;8.60;;;;;;;3.41;83.23;98267.62;1797854;78;21934;-69
2021/01/24 03:10:23;;;;;;;12.20;8.30;;;;;;;3.45;82.94;98272.03;1808815;78;26500;-68
2021/01/24 03:13:09;;;;;;;13.83;8.87;;;;;;;3.50;83.02;98261.47;1795386;78;22754;-69
2021/01/24 03:15:35;;;;;;;13.95;9.40;;;;;;;3.46;82.99;98254.92;1801784;78;21554;-69
2021/01/24 03:18:01;;;;;;;13.55;9.23;;;;;;;3.55;82.71;98255.78;1798118;78;27233;-70
2021/01/24 03:20:33;;;;;;;15.93;9.47;;;;;;;3.65;82.49;98253.02;1772706;79;21254;-69
2021/01/24 03:22:59;;;;;;;14.93;9.80;;;;;;;3.72;82.25;98247.51;1792022;79;21166;-69
2021/01/24 03:25:24;;;;;;;15.13;9.60;;;;;;;3.70;81.98;98250.28;1791795;79;22644;-68
2021/01/24 03:27:50;;;;;;;16.02;10.32;;;;;;;3.68;81.83;98256.63;1798097;78;28330;-70
2021/01/24 03:30:17;;;;;;;13.40;9.35;;;;;;;3.68;82.30;98256.63;1791191;79;27056;-68
2021/01/24 03:32:43;;;;;;;15.45;10.32;;;;;;;3.79;82.18;98248.48;1793217;79;21028;-68
2021/01/24 03:35:11;;;;;;;14.57;10.13;;;;;;;3.78;82.07;98248.17;1772863;79;25390;-70
2021/01/24 03:37:36;;;;;;;15.05;9.98;;;;;;;3.80;82.15;98248.02;1795556;78;21610;-68
2021/01/24 03:40:03;;;;;;;15.13;10.72;;;;;;;3.92;81.73;98236.30;1797348;78;28926;-70
2021/01/24 03:42:29;;;;;;;18.48;10.68;;;;;;;4.02;81.34;98234.83;1796375;79;21130;-68
2021/01/24 03:44:55;;;;;;;13.35;9.48;;;;;;;4.14;81.17;98234.84;1793572;78;21249;-70
2021/01/24 03:47:21;;;;;;;14.87;10.27;;;;;;;4.08;81.11;98237.60;1797958;79;26455;-69
2021/01/24 03:49:47;;;;;;;13.90;9.80;;;;;;;3.97;81.34;98237.12;1786129;77;22814;-67
2021/01/24 03:52:12;;;;;;;15.45;10.32;;;;;;;3.85;81.62;98234.80;1788730;78;28340;-69
2021/01/24 03:54:38;;;;;;;14.33;9.20;;;;;;;3.76;82.12;98237.89;1797769;79;26728;-68
2021/01/24 03:57:04;;;;;;;14.13;9.85;;;;;;;3.79;81.92;98240.66;1801610;79;21342;-68
2021/01/24 03:59:30;;;;;;;14.63;9.70;;;;;;;3.81;82.12;98245.72;1795521;79;25439;-68
2021/01/24 04:01:55;;;;;;;13.80;9.57;;;;;;;3.90;82.04;98253.42;1793422;79;24768;-67
2021/01/24 04:04:21;;;;;;;14.33;9.88;;;;;;;3.97;81.65;98256.20;1795341;79;28146;-67
2021/01/24 04:06:47;;;;;;;12.45;9.23;;;;;;;4.02;81.51;98255.72;1795993;78;26632;-67
2021/01/24 04:09:13;;;;;;;14.63;10.72;;;;;;;4.03;81.41;98250.84;1788732;78;21941;-67
2021/01/24 04:11:38;;;;;;;16.00;10.18;;;;;;;4.01;81.64;98257.53;1783035;79;27032;-68
2021/01/24 04:14:04;;;;;;;13.73;9.97;;;;;;;4.07;81.51;98244.30;1791946;79;23874;-68
2021/01/24 04:16:31;;;;;;;13.55;9.85;;;;;;;4.05;81.02;98247.56;1788798;79;28289;-68
2021/01/24 04:18:56;;;;;;;14.55;9.78;;;;;;;3.98;81.62;98234.81;1807498;77;21141;-68
2021/01/24 04:21:22;;;;;;;14.00;10.10;;;;;;;3.99;81.12;98237.77;1802588;77;21940;-68
2021/01/24 04:23:48;;;;;;;14.73;10.00;;;;;;;4.03;80.94;98224.72;1804459;79;27067;-68
2021/01/24 04:26:13;;;;;;;15.17;10.07;;;;;;;4.11;80.90;98228.64;1803785;79;24162;-68
2021/01/24 04:28:39;;;;;;;17.25;10.98;;;;;;;3.97;80.87;98227.48;1804599;79;28793;-68
2021/01/24 04:31:05;;;;;;;17.57;10.28;;;;;;;3.86;81.38;98236.44;1805335;79;27404;-68
2021/01/24 04:33:31;;;;;;;14.30;9.38;;;;;;;3.84;81.60;98234.48;1802410;79;22357;-69
2021/01/24 04:35:56;;;;;;;15.93;10.20;;;;;;;3.85;81.62;98225.66;1804579;79;26174;-69
2021/01/24 04:38:22;;;;;;;17.47;10.70;;;;;;;3.65;82.15;98223.01;1802959;79;22683;-68
2021/01/24 04:40:48;;;;;;;17.12;10.48;;;;;;;3.74;82.28;98223.36;1805761;77;28509;-68
2021/01/24 04:43:14;;;;;;;16.65;10.55;;;;;;;3.81;82.01;98226.97;1804845;79;26625;-69
2021/01/24 04:45:40;;;;;;;15.30;9.88;;;;;;;3.92;81.71;98227.16;1805001;79;21658;-69
2021/01/24 04:48:07;;;;;;;15.98;10.55;;;;;;;4.02;81.65;98225.19;1804378;79;25947;-69
2021/01/24 04:50:33;;;;;;;17.85;10.78;;;;;;;4.10;81.42;98226.99;1805419;79;21223;-69
2021/01/24 04:52:58;;;;;;;18.85;11.20;;;;;;;4.09;81.13;98217.55;1805305;79;28291;-69
2021/01/24 04:55:24;;;;;;;18.20;11.53;;;;;;;4.00;81.37;98210.68;1805581;78;25852;-69
2021/01/24 04:57:52;;;;;;;16.05;10.72;;;;;;;3.85;82.01;98208.69;1804898;78;22018;-69
2021/01/24 05:00:18;;;;;;;16.95;10.95;;;;;;;3.79;82.32;98204.10;1803681;79;21208;-69
2021/01/24 05:02:44;;;;;;;17.75;11.30;;;;;;;3.83;82.32;98209.34;1803920;79;21222;-69
2021/01/24 05:05:11;;;;;;;17.05;10.75;;;;;;;3.81;82.34;98207.86;1740052;79;28393;-68
2021/01/24 05:07:37;;;;;;;18.05;11.35;;;;;;;3.82;82.82;98209.00;1804280;79;21169;-69
2021/01/24 05:10:04;;;;;;;18.10;11.40;;;;;;;3.87;82.56;98208.05;1803226;79;21287;-69
2021/01/24 05:12:30;;;;;;;16.77;10.80;;;;;;;3.81;82.45;98210.00;1803083;79;21125;-69
2021/01/24 05:14:58;;;;;;;15.73;9.73;;;;;;;3.77;82.63;98206.06;1803753;79;23644;-69
2021/01/24 05:17:25;;;;;;;16.07;10.18;;;;;;;3.80;82.57;98207.05;1807240;77;21176;-68
2021/01/24 05:19:51;;;;;;;20.10;11.30;;;;;;;3.62;83.61;98207.67;1813463;77;21627;-68
2021/01/24 05:22:17;;;;;;;16.70;10.70;;;;;;;3.52;84.22;98204.70;1778883;77;22007;-69
2021/01/24 05:24:43;;;;;;;15.63;9.78;;;;;;;3.55;84.84;98208.30;1820345;77;26496;-68
2021/01/24 05:27:10;;;;;;;19.53;10.97;;;;;;;3.66;84.52;98201.97;1772748;77;25690;-68
2021/01/24 05:29:39;;;;;;;19.65;11.53;;;;;;;3.57;84.54;98193.33;1815270;77;21571;-68
2021/01/24 05:32:06;;;;;;;19.07;11.00;;;;;;;3.62;84.50;98199.84;1814241;77;21619;-69
2021/01/24 05:34:31;;;;;;;17.70;11.12;;;;;;;3.80;84.18;98195.30;1815707;77;21898;-68
2021/01/24 05:36:58;;;;;;;17.85;11.12;;;;;;;3.90;83.80;98192.53;1819084;77;27007;-69
2021/01/24 05:39:25;;;;;;;20.45;11.80;;;;;;;3.89;83.55;98191.73;1788455;77;21225;-67
2021/01/24 05:41:52;;;;;;;17.77;11.65;;;;;;;3.91;83.86;98194.98;1814192;77;21138;-69
2021/01/24 05:44:20;;;;;;;18.90;11.93;;;;;;;3.97;83.72;98196.64;1779114;78;21171;-68
2021/01/24 05:46:46;;;;;;;;;;;;;;;4.04;83.45;98197.61;1821452;77;22048;-68
2021/01/24 05:49:14;;;;;;;19.95;12.05;;;;;;;3.98;83.66;98191.72;1815357;77;20397;-68
2021/01/24 05:51:39;;;;;;;17.37;11.68;;;;;;;3.72;84.66;98195.30;1814912;77;21138;-68
2021/01/24 05:54:05;;;;;;;19.48;11.55;;;;;;;3.83;84.70;98194.98;1815324;77;28828;-68
2021/01/24 05:56:31;;;;;;;17.17;11.18;;;;;;;3.94;84.48;98195.97;1815683;77;27403;-68
2021/01/24 05:59:01;;;;;;;16.85;10.53;;;;;;;3.99;83.98;98181.61;1817033;77;22289;-68
2021/01/24 06:01:28;;;;;;;18.00;12.15;;;;;;;3.94;84.31;98184.71;1815519;77;21249;-68
2021/01/24 06:03:55;;;;;;;20.40;13.95;;;;;;;3.93;84.29;98189.13;1813389;77;21167;-69
2021/01/24 06:06:21;;;;;;;22.17;15.00;;;;;;;4.00;84.12;98192.40;1815977;77;21101;-70
2021/01/24 06:08:47;;;;;;;24.57;15.78;;;;;;;4.06;83.92;98199.08;1812594;77;27394;-69
2021/01/24 06:11:18;;;;;;;24.12;16.70;;;;;;;4.10;84.00;98204.79;1814390;77;21150;-69
2021/01/24 06:13:50;;;;;;;24.05;17.42;;;;;;;4.05;84.23;98200.55;1786943;77;39780;-69
2021/01/24 06:16:23;;;;;;;25.95;18.32;;;;;;;3.94;84.63;98201.69;1816964;77;21641;-71
2021/01/24 06:19:01;;;;;;;27.02;18.30;;;;;;;4.03;84.47;98199.91;1825500;77;21184;-69
2021/01/24 06:21:36;;;;;;;28.20;19.70;;;;;;;3.95;84.47;98197.61;1829219;77;21176;-69
2021/01/24 06:24:17;;;;;;;26.27;19.35;;;;;;;3.73;85.45;98198.25;1829922;77;21648;-69
2021/01/24 06:26:44;;;;;;;31.60;22.00;;;;;;;3.83;85.45;98202.01;1832565;77;21132;-70
2021/01/24 06:29:11;;;;;;;33.13;22.30;;;;;;;3.67;86.37;98202.80;1828311;77;21200;-69
2021/01/24 06:31:46;;;;;;;32.87;22.17;;;;;;;3.64;86.74;98201.81;1840272;77;21151;-70
2021/01/24 06:34:11;;;;;;;31.57;22.27;;;;;;;3.63;87.11;98191.04;1825447;77;21173;-70
2021/01/24 06:36:38;;;;;;;33.78;23.25;;;;;;;3.61;87.44;98195.61;1832833;77;21030;-70
2021/01/24 06:39:05;;;;;;;29.00;22.70;;;;;;;3.57;87.52;98192.48;1830479;77;21175;-69
2021/01/24 06:41:46;;;;;;;32.88;22.20;;;;;;;3.66;87.28;98191.52;1825025;77;21218;-68
2021/01/24 06:44:36;;;;;;;30.75;22.25;;;;;;;3.76;86.84;98194.02;1830238;77;21165;-69
2021/01/24 06:47:35;;;;;;;32.35;22.27;;;;;;;3.77;86.62;98190.41;1828670;77;21539;-69
2021/01/24 06:50:01;;;;;;;31.75;21.62;;;;;;;3.64;86.98;98182.24;1827917;77;21235;-70
2021/01/24 06:52:27;;;;;;;25.90;19.82;;;;;;;3.57;87.63;98173.75;1831424;77;27127;-69
2021/01/24 06:54:52;;;;;;;27.43;19.63;;;;;;;3.51;88.00;98170.47;1827859;77;23696;-70
2021/01/24 06:57:18;;;;;;;28.62;20.23;;;;;;;3.50;88.07;98168.02;1830260;77;28294;-69
2021/01/24 06:59:44;;;;;;;28.30;20.02;;;;;;;3.51;88.09;98174.39;1830533;77;26688;-69
2021/01/24 07:02:37;;;;;;;26.65;19.25;;;;;;;3.55;87.82;98170.46;1831930;77;21371;-69
2021/01/24 07:05:26;;;;;;;24.45;19.02;;;;;;;3.65;87.44;98164.28;1825853;77;21589;-69
2021/01/24 07:07:50;;;;;;;25.05;18.92;;;;;;;3.71;87.09;98159.25;1828253;77;21368;-69
2021/01/24 07:10:41;;;;;;;25.75;18.85;;;;;;;3.63;87.13;98159.72;1828109;77;21577;-69
2021/01/24 07:13:30;;;;;;;28.40;20.05;;;;;;;3.55;87.58;98161.33;1830699;77;21191;-69
2021/01/24 07:16:04;;;;;;;26.45;19.00;;;;;;;3.48;87.90;98165.58;1827204;77;21203;-69
2021/01/24 07:18:44;;;;;;;27.85;20.15;;;;;;;3.47;88.05;98158.71;1826020;77;21187;-69
2021/01/24 07:21:11;;;;;;;24.55;18.82;;;;;;;3.36;88.30;98162.94;1811713;77;22322;-70
2021/01/24 07:23:38;;;;;;;26.43;19.40;;;;;;;3.46;88.16;98169.31;1812089;78;21146;-68
2021/01/24 07:26:04;;;;;;;27.95;19.37;;;;;;;3.51;88.04;98167.86;1817502;78;21104;-68
2021/01/24 07:28:30;;;;;;;27.25;19.35;;;;;;;3.36;88.35;98157.72;1816175;78;21218;-68
2021/01/24 07:31:04;;;;;;;27.43;19.20;;;;;;;3.32;88.64;98161.11;1816516;78;26902;-69
2021/01/24 07:33:32;;;;;;;27.73;19.45;;;;;;;3.11;89.70;98156.33;1811603;78;21223;-70
2021/01/24 07:36:03;;;;;;;28.87;20.55;;;;;;;3.14;89.79;98158.63;1813891;78;21102;-69
2021/01/24 07:38:29;;;;;;;30.70;20.32;;;;;;;3.15;89.87;98161.55;1814630;78;21199;-68
2021/01/24 07:40:59;;;;;;;28.53;19.97;;;;;;;3.28;89.48;98153.77;1810542;78;21289;-69
2021/01/24 07:43:28;;;;;;;27.48;19.85;;;;;;;3.32;89.32;98155.89;1808268;78;21202;-69
2021/01/24 07:45:54;;;;;;;29.55;20.25;;;;;;;3.40;89.09;98155.09;1815431;77;21140;-68
2021/01/24 07:48:20;;;;;;;28.47;19.90;;;;;;;3.49;88.70;98152.83;1815855;77;21199;-68
2021/01/24 07:50:46;;;;;;;27.20;19.35;;;;;;;3.56;88.42;98155.64;1815240;77;22004;-68
2021/01/24 07:53:12;;;;;;;27.90;19.23;;;;;;;3.61;88.19;98151.25;1810496;78;22740;-69
2021/01/24 07:55:38;;;;;;;26.10;18.93;;;;;;;3.58;88.06;98155.79;1787546;78;26895;-69
2021/01/24 07:58:05;;;;;;;28.10;19.17;;;;;;;3.59;88.04;98152.21;1815096;78;26178;-69
2021/01/24 08:00:33;;;;;;;32.05;20.75;;;;;;;3.59;88.19;98151.41;1817371;78;21196;-68
2021/01/24 08:03:00;;;;;;;31.42;20.52;;;;;;;3.51;88.46;98143.08;1814638;78;21160;-68
2021/01/24 08:05:29;;;;;;;29.55;20.05;;;;;;;3.64;88.38;98142.59;1813784;78;21203;-69
2021/01/24 08:07:55;;;;;;;32.48;20.35;;;;;;;3.80;87.97;98130.03;1815419;78;21211;-68
2021/01/24 08:10:21;;;;;;;27.50;19.37;;;;;;;3.86;87.13;98131.19;1813181;78;21211;-68
2021/01/24 08:12:47;;;;;;;27.55;20.02;;;;;;;3.83;86.82;98136.73;1813366;78;28325;-67
2021/01/24 08:15:13;;;;;;;27.70;18.90;;;;;;;3.85;86.94;98143.41;1813750;78;26776;-69
2021/01/24 08:17:40;;;;;;;27.20;18.85;;;;;;;3.85;86.96;98138.69;1816401;78;21182;-68
2021/01/24 08:20:08;;;;;;;30.65;20.30;;;;;;;3.90;86.85;98141.61;1805849;78;21193;-67
2021/01/24 08:22:34;;;;;;;27.13;19.27;;;;;;;3.62;87.54;98145.03;1805145;79;21071;-68
2021/01/24 08:25:00;;;;;;;30.37;19.90;;;;;;;3.58;87.95;98151.88;1804145;78;28331;-68
2021/01/24 08:27:27;;;;;;;29.37;20.60;;;;;;;3.50;88.46;98137.52;1805108;78;21180;-69
2021/01/24 08:29:55;;;;;;;28.38;20.00;;;;;;;3.64;88.15;98130.05;1806947;77;21535;-68
2021/01/24 08:32:22;;;;;;;31.85;20.40;;;;;;;3.74;87.93;98109.33;1777945;79;21598;-68
2021/01/24 08:34:48;;;;;;;29.45;19.98;;;;;;;3.73;87.78;98102.47;1805439;79;21170;-68
2021/01/24 08:37:14;;;;;;;29.98;20.68;;;;;;;3.66;87.81;98108.00;1780181;79;28870;-70
2021/01/24 08:39:40;;;;;;;30.48;20.27;;;;;;;3.67;87.87;98113.56;1781061;79;21733;-68
2021/01/24 08:42:06;;;;;;;28.40;19.60;;;;;;;3.53;88.07;98111.09;1749294;79;21182;-68
2021/01/24 08:44:32;;;;;;;30.10;21.05;;;;;;;3.41;88.88;98116.30;1802664;79;21191;-70
2021/01/24 08:47:04;;;;;;;30.07;20.67;;;;;;;3.39;88.93;98109.13;1804250;79;24683;-70
2021/01/24 08:49:31;;;;;;;32.25;22.93;;;;;;;3.49;88.79;98110.28;1804798;79;21150;-70
2021/01/24 08:52:04;;;;;;;29.25;20.82;;;;;;;3.35;89.25;98107.81;1804468;78;21248;-69
2021/01/24 08:54:42;;;;;;;32.75;21.50;;;;;;;3.35;89.30;98116.94;1806803;79;22379;-70
2021/01/24 08:57:14;;;;;;;32.80;23.10;;;;;;;3.34;89.61;98112.69;1802040;79;21232;-70
2021/01/24 08:59:50;;;;;;;32.10;23.00;;;;;;;3.27;89.76;98106.00;1802986;79;21575;-69
2021/01/24 09:02:37;;;;;;;30.68;21.52;;;;;;;3.22;90.27;98107.78;1800668;79;21205;-69
2021/01/24 09:05:05;;;;;;;31.45;22.32;;;;;;;3.24;90.29;98104.52;1805689;79;26828;-69
2021/01/24 09:07:43;;;;;;;28.35;20.35;;;;;;;3.18;90.18;98110.37;1803470;79;22131;-69
2021/01/24 09:10:31;;;;;;;30.60;21.05;;;;;;;3.19;90.27;98102.89;1806902;79;21166;-72
2021/01/24 09:13:02;;;;;;;30.80;21.57;;;;;;;3.03;90.93;98096.31;1803381;79;22141;-69
2021/01/24 09:15:30;;;;;;;30.25;21.40;;;;;;;3.14;90.79;98103.86;1804749;79;21200;-70
2021/01/24 09:17:57;;;;;;;32.28;22.80;;;;;;;3.06;90.76;98096.00;1801946;78;21577;-67
2021/01/24 09:20:24;;;;;;;24.00;16.90;;;;;;;3.13;90.93;98098.30;1810224;77;22384;-70
2021/01/24 09:22:50;;;;;;;29.95;21.90;;;;;;;3.06;91.20;98098.60;1822400;77;21198;-69
2021/01/24 09:25:15;;;;;;;28.67;20.60;;;;;;;3.09;91.18;98093.06;1816354;77;24770;-68
2021/01/24 09:27:41;;;;;;;30.48;22.20;;;;;;;3.21;90.91;98094.41;1815510;77;28909;-69
2021/01/24 09:30:10;;;;;;;31.77;21.37;;;;;;;3.09;91.45;98093.56;1812937;77;27170;-69
2021/01/24 09:32:36;;;;;;;31.55;22.17;;;;;;;3.28;91.14;98088.55;1814729;77;21176;-68
2021/01/24 09:35:02;;;;;;;30.40;21.83;;;;;;;3.37;90.88;98084.98;1816429;77;26477;-68
2021/01/24 09:37:28;;;;;;;30.95;21.15;;;;;;;3.48;90.30;98082.08;1815838;77;21138;-67
2021/01/24 09:39:54;;;;;;;29.23;20.95;;;;;;;3.51;90.20;98077.84;1808002;77;28359;-68
2021/01/24 09:42:20;;;;;;;30.00;21.45;;;;;;;3.45;90.00;98079.79;1818373;77;26722;-70
2021/01/24 09:44:45;;;;;;;28.57;20.13;;;;;;;3.52;89.90;98087.27;1812831;77;21443;-69
2021/01/24 09:47:11;;;;;;;31.70;21.77;;;;;;;3.46;90.16;98085.81;1807500;77;26058;-69
2021/01/24 09:49:37;;;;;;;32.17;22.20;;;;;;;3.23;90.63;98086.42;1817060;77;21707;-69
2021/01/24 09:52:03;;;;;;;30.60;21.48;;;;;;;3.19;91.17;98091.15;1811905;77;28357;-67
2021/01/24 09:54:29;;;;;;;30.77;21.45;;;;;;;3.28;91.16;98085.94;1812957;77;21677;-67
2021/01/24 09:56:54;;;;;;;30.48;21.60;;;;;;;3.32;91.12;98089.87;1819950;77;21765;-69
2021/01/24 09:59:21;;;;;;;30.10;21.57;;;;;;;3.41;90.64;98091.52;1807254;77;27422;-68
2021/01/24 10:01:47;;;;;;;28.75;20.20;;;;;;;3.52;90.43;98076.84;1808190;77;21113;-68
2021/01/24 10:04:12;;;;;;;31.50;20.57;;;;;;;3.62;90.12;98066.73;1819441;77;28562;-69
2021/01/24 10:06:38;;;;;;;33.60;21.77;;;;;;;3.39;90.37;98062.17;1810336;77;27311;-69
2021/01/24 10:09:05;;;;;;;29.27;21.42;;;;;;;3.21;91.44;98059.19;1790922;77;22041;-69
2021/01/24 10:11:31;;;;;;;29.92;21.48;;;;;;;3.26;91.33;98057.91;1813188;77;21182;-70
2021/01/24 10:13:56;;;;;;;29.23;21.03;;;;;;;3.12;91.97;98058.85;1811971;77;24723;-68
2021/01/24 10:16:22;;;;;;;31.68;21.80;;;;;;;3.10;92.41;98051.69;1818153;77;28788;-69
2021/01/24 10:18:48;;;;;;;29.07;21.33;;;;;;;3.25;92.18;98053.19;1807994;77;26880;-68
2021/01/24 10:21:14;;;;;;;32.48;22.42;;;;;;;3.19;92.30;98041.59;1815715;77;22511;-69
2021/01/24 10:23:40;;;;;;;30.73;20.63;;;;;;;3.28;92.21;98038.98;1815298;76;27408;-69
2021/01/24 10:26:06;;;;;;;28.43;20.37;;;;;;;3.27;92.14;98032.16;1788451;77;24079;-69
2021/01/24 10:28:32;;;;;;;29.40;21.27;;;;;;;3.35;92.16;98032.16;1813324;76;21237;-71
2021/01/24 10:30:57;;;;;;;29.48;21.00;;;;;;;3.34;92.22;98022.69;1814811;76;27581;-69
2021/01/24 10:33:23;;;;;;;31.37;22.00;;;;;;;3.45;92.06;98015.86;1816362;76;23376;-71
2021/01/24 10:35:49;;;;;;;29.33;20.30;;;;;;;3.50;91.77;98012.27;1817360;77;27849;-70
2021/01/24 10:38:15;;;;;;;30.03;21.23;;;;;;;3.55;91.61;98006.05;1813915;77;24781;-68
2021/01/24 10:40:41;;;;;;;29.00;18.85;;;;;;;3.64;91.34;98004.77;1813251;76;21184;-67
2021/01/24 10:43:07;;;;;;;31.50;20.50;;;;;;;3.68;90.90;98009.96;1812884;77;21215;-67
2021/01/24 10:45:33;;;;;;;29.90;20.05;;;;;;;3.57;90.91;98025.00;1815430;76;21843;-67
2021/01/24 10:47:59;;;;;;;27.32;18.75;;;;;;;3.62;91.38;98022.36;1813199;76;26213;-68
2021/01/24 10:50:25;;;;;;;28.40;18.20;;;;;;;3.69;91.07;98015.52;1813142;77;21184;-69
2021/01/24 10:52:51;;;;;;;29.72;19.40;;;;;;;3.69;90.82;98007.69;1813925;76;28617;-70
2021/01/24 10:55:17;;;;;;;26.82;18.75;;;;;;;3.82;91.01;98000.14;1814729;76;26851;-69
2021/01/24 10:57:43;;;;;;;29.70;19.12;;;;;;;3.68;91.33;98004.27;1815426;77;21788;-68
2021/01/24 11:00:09;;;;;;;27.00;18.10;;;;;;;3.68;91.67;98008.66;1811713;76;27216;-73
2021/01/24 11:02:35;;;;;;;29.23;19.35;;;;;;;3.75;91.29;98005.22;1812128;77;21686;-72
2021/01/24 11:05:01;;;;;;;28.40;19.17;;;;;;;3.76;90.96;97999.53;1788478;77;28378;-70
2021/01/24 11:07:27;;;;;;;28.17;18.87;;;;;;;3.66;91.21;98002.80;1816944;77;21177;-69
2021/01/24 11:09:54;;;;;;;28.55;18.45;;;;;;;3.83;90.66;98001.78;1816551;77;21236;-68
2021/01/24 11:12:20;;;;;;;24.85;17.75;;;;;;;3.66;90.75;97995.77;1816929;77;21242;-69
2021/01/24 11:14:46;;;;;;;28.37;19.00;;;;;;;3.68;91.13;97993.83;1813100;76;21034;-69
2021/01/24 11:17:12;;;;;;;28.80;18.92;;;;;;;3.71;91.29;97995.27;1813764;77;28819;-69
2021/01/24 11:19:38;;;;;;;26.85;18.65;;;;;;;3.69;91.22;97990.72;1816933;77;26755;-67
2021/01/24 11:22:04;;;;;;;29.82;19.75;;;;;;;3.60;91.75;97983.38;1812293;77;22165;-66
2021/01/24 11:24:30;;;;;;;26.07;17.92;;;;;;;3.56;92.28;97982.91;1809720;77;21201;-67
2021/01/24 11:26:56;;;;;;;25.65;18.40;;;;;;;3.69;91.73;97975.86;1807460;77;21185;-67
2021/01/24 11:29:22;;;;;;;25.35;17.85;;;;;;;3.87;91.57;97974.37;1796785;78;21091;-66
2021/01/24 11:31:48;;;;;;;26.62;18.35;;;;;;;3.99;91.14;97976.61;1820640;77;26753;-69